createdAt,value
2022-08-17T00:00:07.004Z,20.14
2022-08-17T00:02:38.308Z,20.30
2022-08-17T00:04:50.336Z,20.36
2022-08-17T00:06:52.667Z,20.44
2022-08-17T00:08:59.485Z,20.73
2022-08-17T00:11:07.118Z,20.74
2022-08-17T00:13:21.848Z,20.68
2022-08-17T00:15:24.922Z,20.61
2022-08-17T00:17:27.173Z,20.49
2022-08-17T00:19:29.875Z,20.62
2022-08-17T00:22:29.621Z,20.60
2022-08-17T00:23:56.517Z,20.66
2022-08-17T00:25:58.960Z,20.65
2022-08-17T00:28:01.278Z,20.77
2022-08-17T00:30:06.732Z,20.73
2022-08-17T00:33:12.501Z,20.61
2022-08-17T00:34:30.817Z,20.56
2022-08-17T00:36:34.449Z,20.56
2022-08-17T00:38:37.048Z,20.58
2022-08-17T00:40:50.436Z,20.63
2022-08-17T00:42:54.137Z,20.65
2022-08-17T00:44:56.252Z,20.57
2022-08-17T00:46:58.381Z,20.51
2022-08-17T00:49:00.832Z,20.55
2022-08-17T00:51:09.173Z,20.50
2022-08-17T00:53:12.021Z,20.47
2022-08-17T00:55:14.532Z,20.37
2022-08-17T00:57:41.428Z,20.33
2022-08-17T01:00:02.109Z,20.30
2022-08-17T01:02:09.931Z,20.23
2022-08-17T01:04:13.856Z,20.30
2022-08-17T01:06:16.089Z,20.27
2022-08-17T01:08:22.272Z,20.25
2022-08-17T01:10:59.609Z,20.11
2022-08-17T01:13:06.200Z,20.03
2022-08-17T01:15:08.904Z,20.09
2022-08-17T01:17:11.229Z,20.08
2022-08-17T01:19:19.462Z,20.09
2022-08-17T01:21:34.145Z,20.08
2022-08-17T01:23:36.920Z,19.91
2022-08-17T01:25:40.308Z,19.60
2022-08-17T01:27:43.067Z,19.61
2022-08-17T01:29:50.425Z,19.61
2022-08-17T01:32:01.101Z,19.60
2022-08-17T01:34:08.713Z,19.67
2022-08-17T01:36:10.847Z,19.58
2022-08-17T01:38:13.012Z,19.72
2022-08-17T01:40:23.169Z,19.79
2022-08-17T01:42:43.873Z,19.77
2022-08-17T01:44:45.915Z,19.65
2022-08-17T01:46:48.102Z,19.75
2022-08-17T01:48:50.453Z,19.79
2022-08-17T01:50:52.517Z,19.84
2022-08-17T01:53:03.533Z,19.97
2022-08-17T01:55:07.111Z,19.90
2022-08-17T01:57:09.614Z,19.93
2022-08-17T01:59:12.829Z,19.75
2022-08-17T02:01:23.744Z,19.58
2022-08-17T02:03:26.172Z,19.45
2022-08-17T02:05:28.550Z,19.40
2022-08-17T02:07:30.687Z,19.24
2022-08-17T02:09:32.846Z,19.13
2022-08-17T02:11:37.541Z,19.15
2022-08-17T02:13:39.627Z,19.22
2022-08-17T02:15:41.687Z,19.28
2022-08-17T02:17:44.601Z,19.26
2022-08-17T02:19:46.625Z,19.26
2022-08-17T02:21:52.501Z,19.35
2022-08-17T02:23:56.017Z,19.35
2022-08-17T02:25:59.971Z,19.45
2022-08-17T02:28:03.423Z,19.46
2022-08-17T02:31:02.253Z,19.54
2022-08-17T02:32:33.032Z,19.60
2022-08-17T02:34:35.017Z,19.64
2022-08-17T02:36:37.938Z,19.78
2022-08-17T02:38:41.782Z,19.93
2022-08-17T02:40:43.870Z,19.78
2022-08-17T02:42:47.910Z,19.82
2022-08-17T02:44:50.012Z,19.68
2022-08-17T02:46:51.973Z,19.52
2022-08-17T02:48:54.295Z,19.70
2022-08-17T02:50:56.246Z,19.58
2022-08-17T02:53:01.665Z,19.52
2022-08-17T02:55:11.682Z,19.29
2022-08-17T02:57:13.992Z,19.21
2022-08-17T02:59:16.130Z,19.20
2022-08-17T03:01:18.429Z,19.23
2022-08-17T03:03:20.453Z,19.24
2022-08-17T03:05:26.498Z,19.14
2022-08-17T03:07:28.909Z,19.15
2022-08-17T03:09:31.586Z,19.08
2022-08-17T03:11:33.736Z,19.24
2022-08-17T03:13:36.575Z,19.08
2022-08-17T03:15:38.704Z,19.07
2022-08-17T03:17:46.373Z,18.95
2022-08-17T03:19:48.641Z,19.06
2022-08-17T03:21:55.388Z,19.02
2022-08-17T03:23:57.571Z,18.90
2022-08-17T03:26:00.243Z,19.03
2022-08-17T03:28:04.679Z,19.06
2022-08-17T03:30:09.307Z,19.06
2022-08-17T03:32:16.872Z,19.18
2022-08-17T03:34:18.921Z,19.03
2022-08-17T03:36:20.943Z,18.93
2022-08-17T03:38:23.458Z,18.66
2022-08-17T03:40:55.089Z,18.42
2022-08-17T03:42:48.810Z,18.48
2022-08-17T03:44:53.093Z,18.53
2022-08-17T03:46:59.798Z,18.55
2022-08-17T03:49:07.972Z,18.53
2022-08-17T03:51:23.321Z,18.47
2022-08-17T03:53:25.400Z,18.56
2022-08-17T03:55:30.772Z,18.66
2022-08-17T03:57:38.599Z,18.89
2022-08-17T03:59:41.163Z,18.95
2022-08-17T04:01:46.660Z,18.91
2022-08-17T04:03:48.920Z,18.84
2022-08-17T04:05:50.914Z,18.75
2022-08-17T04:07:52.947Z,18.70
2022-08-17T04:09:55.440Z,18.83
2022-08-17T04:11:57.551Z,18.83
2022-08-17T04:14:07.248Z,19.03
2022-08-17T04:16:09.667Z,19.19
2022-08-17T04:18:11.731Z,19.30
2022-08-17T04:20:16.831Z,19.68
2022-08-17T04:22:32.068Z,19.80
2022-08-17T04:24:35.927Z,20.02
2022-08-17T04:26:52.667Z,20.13
2022-08-17T04:28:57.697Z,20.46
2022-08-17T04:30:59.791Z,20.77
2022-08-17T04:33:13.045Z,21.08
2022-08-17T04:35:25.480Z,21.19
2022-08-17T04:37:27.531Z,21.60
2022-08-17T04:39:29.525Z,22.03
2022-08-17T04:41:31.831Z,22.38
2022-08-17T04:43:35.872Z,22.97
2022-08-17T04:45:55.496Z,23.48
2022-08-17T04:48:00.223Z,24.16
2022-08-17T04:50:02.189Z,24.75
2022-08-17T04:52:04.888Z,25.17
2022-08-17T04:54:15.063Z,25.60
2022-08-17T04:56:18.304Z,26.10
2022-08-17T04:58:21.463Z,26.69
2022-08-17T05:00:24.272Z,27.21
2022-08-17T05:02:26.231Z,27.53
2022-08-17T05:04:33.910Z,27.96
2022-08-17T05:06:37.805Z,28.29
2022-08-17T05:08:40.048Z,28.83
2022-08-17T05:10:45.542Z,29.28
2022-08-17T05:12:48.196Z,29.69
2022-08-17T05:14:50.251Z,30.01
2022-08-17T05:16:52.295Z,30.48
2022-08-17T05:18:55.633Z,30.91
2022-08-17T05:20:58.149Z,31.36
2022-08-17T05:23:04.443Z,31.77
2022-08-17T05:25:07.184Z,31.84
2022-08-17T05:27:09.291Z,32.25
2022-08-17T05:29:11.331Z,32.59
2022-08-17T05:31:14.431Z,32.74
2022-08-17T05:33:24.663Z,33.00
2022-08-17T05:35:29.688Z,33.43
2022-08-17T05:37:32.233Z,33.69
2022-08-17T05:39:34.668Z,33.73
2022-08-17T05:41:36.743Z,33.83
2022-08-17T05:43:42.223Z,33.83
2022-08-17T05:46:04.808Z,33.90
2022-08-17T05:48:09.049Z,34.06
2022-08-17T05:50:42.079Z,33.97
2022-08-17T05:53:06.648Z,34.15
2022-08-17T05:55:30.441Z,34.16
2022-08-17T05:57:53.877Z,34.44
2022-08-17T06:00:20.194Z,34.48
2022-08-17T06:02:37.810Z,34.69
2022-08-17T06:05:09.105Z,34.91
2022-08-17T06:07:37.247Z,34.98
2022-08-17T06:10:21.584Z,35.16
2022-08-17T06:13:27.300Z,35.23
2022-08-17T06:15:59.058Z,35.54
2022-08-17T06:18:10.013Z,35.54
2022-08-17T06:20:17.719Z,35.69
2022-08-17T06:22:32.673Z,35.82
2022-08-17T06:24:52.304Z,35.71
2022-08-17T06:26:59.641Z,35.65
2022-08-17T06:29:18.693Z,35.64
2022-08-17T06:32:12.666Z,35.57
2022-08-17T06:34:15.878Z,35.48
2022-08-17T06:36:46.905Z,35.44
2022-08-17T06:39:39.231Z,35.33
2022-08-17T06:43:04.105Z,35.11
2022-08-17T06:45:42.946Z,34.85
2022-08-17T06:48:05.198Z,34.95
2022-08-17T06:53:36.005Z,34.70
2022-08-17T06:56:02.902Z,34.39
2022-08-17T06:58:16.186Z,34.11
2022-08-17T07:00:44.881Z,34.25
2022-08-17T07:03:21.066Z,34.30
2022-08-17T07:05:47.179Z,34.22
2022-08-17T07:08:34.862Z,34.27
2022-08-17T07:10:47.891Z,34.27
2022-08-17T07:12:57.114Z,34.20
2022-08-17T07:15:27.546Z,34.17
2022-08-17T07:17:46.813Z,34.03
2022-08-17T07:20:09.769Z,34.11
2022-08-17T07:22:57.203Z,34.05
2022-08-17T07:25:11.370Z,34.03
2022-08-17T07:27:29.381Z,33.85
2022-08-17T07:29:47.001Z,33.70
2022-08-17T07:31:49.750Z,33.65
2022-08-17T07:34:59.551Z,33.68
2022-08-17T07:37:07.860Z,33.52
2022-08-17T07:39:13.101Z,33.42
2022-08-17T07:41:20.441Z,33.60
2022-08-17T07:43:39.761Z,33.71
2022-08-17T07:46:11.230Z,33.80
2022-08-17T07:48:21.260Z,33.87
2022-08-17T07:50:29.611Z,33.92
2022-08-17T07:52:51.998Z,33.89
2022-08-17T07:54:54.782Z,34.13
2022-08-17T07:57:12.230Z,34.22
2022-08-17T07:59:23.807Z,34.23
2022-08-17T08:01:26.441Z,34.27
2022-08-17T08:03:45.710Z,34.32
2022-08-17T08:06:01.169Z,34.35
2022-08-17T08:08:23.080Z,34.33
2022-08-17T08:10:36.280Z,34.53
2022-08-17T08:12:42.702Z,34.14
2022-08-17T08:15:14.612Z,34.08
2022-08-17T08:17:26.620Z,34.09
2022-08-17T08:19:30.970Z,34.06
2022-08-17T08:21:56.914Z,34.15
2022-08-17T08:24:21.062Z,34.28
2022-08-17T08:26:38.370Z,34.39
2022-08-17T08:29:20.323Z,34.54
2022-08-17T08:31:59.038Z,34.54
2022-08-17T08:35:01.145Z,34.47
2022-08-17T08:37:35.785Z,34.41
2022-08-17T08:39:56.943Z,33.90
2022-08-17T08:42:04.981Z,33.25
2022-08-17T08:45:00.263Z,32.91
2022-08-17T08:47:44.391Z,32.52
2022-08-17T08:50:38.017Z,32.77
2022-08-17T08:53:31.131Z,33.17
2022-08-17T08:55:53.576Z,32.95
2022-08-17T08:58:30.626Z,32.66
2022-08-17T09:00:40.741Z,32.42
2022-08-17T09:03:13.790Z,32.57
2022-08-17T09:05:46.310Z,32.96
2022-08-17T09:08:16.971Z,33.15
2022-08-17T09:10:33.941Z,33.18
2022-08-17T09:12:42.022Z,33.36
2022-08-17T09:15:15.611Z,33.03
2022-08-17T09:18:08.622Z,32.66
2022-08-17T09:20:31.211Z,32.39
2022-08-17T09:22:41.563Z,32.32
2022-08-17T09:24:57.128Z,32.07
2022-08-17T09:27:18.111Z,32.05
2022-08-17T09:29:23.641Z,32.05
2022-08-17T09:31:33.911Z,32.21
2022-08-17T09:33:47.101Z,32.49
2022-08-17T09:35:56.711Z,32.75
2022-08-17T09:38:31.747Z,33.04
2022-08-17T09:40:51.480Z,33.07
2022-08-17T09:43:08.551Z,33.19
2022-08-17T09:45:33.901Z,33.45
2022-08-17T09:48:18.590Z,33.52
2022-08-17T09:51:05.454Z,33.59
2022-08-17T09:53:09.602Z,33.39
2022-08-17T09:55:12.593Z,33.41
2022-08-17T09:57:49.968Z,33.48
2022-08-17T10:00:16.815Z,33.24
2022-08-17T10:02:47.320Z,33.10
2022-08-17T10:05:06.451Z,32.91
2022-08-17T10:07:30.572Z,32.64
2022-08-17T10:09:49.493Z,32.49
2022-08-17T10:12:11.292Z,32.47
2022-08-17T10:14:38.048Z,32.58
2022-08-17T10:17:09.280Z,32.78
2022-08-17T10:20:04.487Z,32.99
2022-08-17T10:22:35.272Z,33.00
2022-08-17T10:25:23.153Z,33.06
2022-08-17T10:27:15.200Z,33.05
2022-08-17T10:29:49.843Z,33.09
2022-08-17T10:31:59.950Z,33.11
2022-08-17T10:34:27.957Z,33.16
2022-08-17T10:36:55.732Z,33.11
2022-08-17T10:39:16.149Z,33.01
2022-08-17T10:41:29.410Z,32.96
2022-08-17T10:44:37.398Z,32.97
2022-08-17T10:46:44.993Z,32.92
2022-08-17T10:49:19.099Z,32.68
2022-08-17T10:51:40.021Z,32.59
2022-08-17T10:53:49.520Z,32.47
2022-08-17T10:56:15.351Z,32.33
2022-08-17T10:58:21.985Z,32.25
2022-08-17T11:00:27.536Z,32.15
2022-08-17T11:02:52.807Z,32.06
2022-08-17T11:05:11.840Z,31.99
2022-08-17T11:07:38.903Z,31.99
2022-08-17T11:10:09.311Z,32.19
2022-08-17T11:12:50.836Z,32.44
2022-08-17T11:15:01.130Z,32.73
2022-08-17T11:17:35.178Z,33.04
2022-08-17T11:19:45.023Z,33.30
2022-08-17T11:22:22.160Z,33.61
2022-08-17T11:24:45.533Z,34.05
2022-08-17T11:27:15.640Z,34.29
2022-08-17T11:29:24.869Z,34.39
2022-08-17T11:31:44.991Z,34.67
2022-08-17T11:34:15.451Z,34.83
2022-08-17T11:36:53.702Z,34.62
2022-08-17T11:39:27.941Z,34.53
2022-08-17T11:42:09.591Z,34.42
2022-08-17T11:44:50.675Z,34.36
2022-08-17T11:47:29.645Z,34.28
2022-08-17T11:50:00.079Z,34.40
2022-08-17T11:52:02.429Z,34.66
2022-08-17T11:54:33.375Z,34.68
2022-08-17T11:56:50.051Z,34.54
2022-08-17T11:58:52.540Z,34.39
2022-08-17T12:01:31.758Z,34.12
2022-08-17T12:03:34.374Z,34.24
2022-08-17T12:05:37.058Z,34.32
2022-08-17T12:07:47.909Z,34.60
2022-08-17T12:09:54.119Z,34.59
2022-08-17T12:12:27.458Z,34.20
2022-08-17T12:15:07.922Z,34.13
2022-08-17T12:17:09.205Z,34.13
2022-08-17T12:19:20.380Z,33.89
2022-08-17T12:21:40.971Z,34.05
2022-08-17T12:24:04.749Z,34.12
2022-08-17T12:26:25.509Z,33.94
2022-08-17T12:28:32.848Z,33.53
2022-08-17T12:30:37.940Z,33.30
2022-08-17T12:32:40.603Z,33.24
2022-08-17T12:34:44.679Z,33.08
2022-08-17T12:36:51.208Z,33.12
2022-08-17T12:39:14.272Z,33.21
2022-08-17T12:41:43.989Z,33.40
2022-08-17T12:44:19.941Z,33.66
2022-08-17T12:46:22.288Z,33.72
2022-08-17T12:48:29.073Z,33.80
2022-08-17T12:50:42.850Z,33.71
2022-08-17T12:52:49.129Z,33.66
2022-08-17T12:55:04.807Z,33.42
2022-08-17T12:57:37.918Z,33.24
2022-08-17T12:59:46.092Z,33.45
2022-08-17T13:01:48.670Z,33.43
2022-08-17T13:03:54.762Z,33.23
2022-08-17T13:06:07.368Z,33.28
2022-08-17T13:08:21.650Z,33.36
2022-08-17T13:10:33.678Z,33.55
2022-08-17T13:12:36.469Z,33.67
2022-08-17T13:14:46.281Z,33.78
2022-08-17T13:19:50.018Z,33.09
2022-08-17T13:21:57.280Z,32.87
2022-08-17T13:24:21.360Z,32.55
2022-08-17T13:26:34.518Z,32.37
2022-08-17T13:28:37.152Z,32.20
2022-08-17T13:30:39.953Z,32.09
2022-08-17T13:32:45.752Z,31.99
2022-08-17T13:35:12.491Z,31.93
2022-08-17T13:37:36.926Z,31.95
2022-08-17T13:39:43.418Z,31.96
2022-08-17T13:41:48.669Z,32.19
2022-08-17T13:43:51.389Z,32.47
2022-08-17T13:45:53.809Z,32.54
2022-08-17T13:48:13.579Z,32.50
2022-08-17T13:50:21.429Z,32.46
2022-08-17T13:52:39.127Z,32.72
2022-08-17T13:54:41.638Z,32.77
2022-08-17T13:57:20.553Z,32.78
2022-08-17T13:59:54.172Z,32.94
2022-08-17T14:01:58.939Z,33.00
2022-08-17T14:04:15.534Z,33.12
2022-08-17T14:06:52.631Z,33.32
2022-08-17T14:08:40.525Z,33.39
2022-08-17T14:10:43.162Z,33.30
2022-08-17T14:12:46.068Z,33.03
2022-08-17T14:14:48.758Z,33.07
2022-08-17T14:16:54.305Z,33.08
2022-08-17T14:18:57.476Z,33.31
2022-08-17T14:21:00.134Z,33.54
2022-08-17T14:23:02.457Z,33.57
2022-08-17T14:25:06.274Z,33.55
2022-08-17T14:27:13.296Z,33.71
2022-08-17T14:29:15.807Z,33.73
2022-08-17T14:31:18.014Z,33.94
2022-08-17T14:33:20.771Z,33.81
2022-08-17T14:35:23.665Z,33.57
2022-08-17T14:37:29.264Z,33.35
2022-08-17T14:39:31.823Z,33.16
2022-08-17T14:41:34.434Z,33.13
2022-08-17T14:43:38.464Z,32.85
2022-08-17T14:45:41.546Z,32.68
2022-08-17T14:47:43.995Z,32.42
2022-08-17T14:49:47.684Z,32.27
2022-08-17T14:51:50.365Z,32.12
2022-08-17T14:53:52.616Z,32.14
2022-08-17T14:55:54.885Z,32.05
2022-08-17T14:57:57.496Z,32.08
2022-08-17T15:00:00.471Z,32.05
2022-08-17T15:02:03.774Z,32.15
2022-08-17T15:04:06.247Z,32.14
2022-08-17T15:06:09.656Z,32.16
2022-08-17T15:08:12.384Z,32.20
2022-08-17T15:10:16.104Z,32.11
2022-08-17T15:12:22.978Z,32.23
2022-08-17T15:14:25.154Z,32.25
2022-08-17T15:16:47.086Z,32.30
2022-08-17T15:19:06.839Z,32.29
2022-08-17T15:21:09.605Z,32.28
2022-08-17T15:23:17.925Z,32.27
2022-08-17T15:25:20.074Z,32.23
2022-08-17T15:27:31.504Z,32.29
2022-08-17T15:29:35.258Z,32.25
2022-08-17T15:31:39.498Z,32.45
2022-08-17T15:33:41.799Z,32.49
2022-08-17T15:35:45.015Z,32.50
2022-08-17T15:37:47.192Z,32.55
2022-08-17T15:39:49.642Z,32.62
2022-08-17T15:41:58.132Z,32.77
2022-08-17T15:44:01.026Z,32.92
2022-08-17T15:46:20.997Z,33.03
2022-08-17T15:48:23.808Z,32.91
2022-08-17T15:50:26.515Z,32.91
2022-08-17T15:52:29.226Z,32.84
2022-08-17T15:54:34.592Z,32.69
2022-08-17T15:56:39.426Z,32.68
2022-08-17T15:58:44.295Z,32.52
2022-08-17T16:00:53.146Z,32.07
2022-08-17T16:03:47.027Z,31.80
2022-08-17T16:05:32.124Z,31.56
2022-08-17T16:07:34.617Z,31.43
2022-08-17T16:09:36.965Z,31.31
2022-08-17T16:11:39.148Z,31.16
2022-08-17T16:13:54.870Z,31.14
2022-08-17T16:15:58.534Z,31.06
2022-08-17T16:18:00.722Z,31.05
2022-08-17T16:22:48.806Z,30.75
2022-08-17T16:34:51.615Z,30.42
2022-08-17T16:39:28.120Z,30.33
2022-08-17T16:41:34.444Z,30.29
2022-08-17T16:43:36.616Z,30.21
2022-08-17T16:46:04.704Z,30.25
2022-08-17T17:01:49.483Z,29.75
2022-08-17T17:03:58.231Z,29.65
2022-08-17T17:06:15.505Z,29.63
2022-08-17T17:08:26.774Z,29.67
2022-08-17T17:10:48.684Z,29.59
2022-08-17T17:13:03.840Z,29.58
2022-08-17T17:15:07.700Z,29.55
2022-08-17T17:17:21.705Z,29.55
2022-08-17T17:19:39.516Z,29.53
2022-08-17T17:22:10.904Z,29.53
2022-08-17T17:24:33.067Z,29.55
2022-08-17T17:27:14.045Z,29.57
2022-08-17T17:29:16.534Z,29.60
2022-08-17T17:31:23.144Z,29.62
2022-08-17T17:33:48.578Z,29.66
2022-08-17T17:35:57.015Z,29.63
2022-08-17T17:38:12.443Z,29.45
2022-08-17T17:40:22.811Z,29.31
2022-08-17T17:42:30.056Z,29.16
2022-08-17T17:44:42.714Z,29.16
2022-08-17T17:46:55.975Z,29.09
2022-08-17T17:48:58.595Z,29.18
2022-08-17T17:52:02.863Z,29.08
2022-08-17T17:54:16.236Z,28.98
2022-08-17T17:57:01.714Z,28.68
2022-08-17T17:59:13.071Z,28.39
2022-08-17T18:01:31.667Z,28.23
2022-08-17T18:04:20.281Z,28.05
2022-08-17T18:06:42.104Z,28.01
2022-08-17T18:09:10.190Z,27.93
2022-08-17T18:11:51.408Z,27.89
2022-08-17T18:14:46.636Z,27.90
2022-08-17T18:17:04.295Z,27.78
2022-08-17T18:19:19.375Z,27.66
2022-08-17T18:21:36.465Z,27.73
2022-08-17T18:23:47.216Z,27.62
2022-08-17T18:26:13.304Z,27.57
2022-08-17T18:28:36.968Z,27.53
2022-08-17T18:30:39.186Z,27.39
2022-08-17T18:32:50.734Z,27.29
2022-08-17T18:53:33.931Z,26.88
2022-08-17T18:55:41.734Z,26.77
2022-08-17T18:57:57.442Z,26.78
2022-08-17T19:00:13.464Z,26.68
2022-08-17T19:02:45.118Z,26.67
2022-08-17T19:05:36.976Z,26.65
2022-08-17T19:07:47.944Z,26.60
2022-08-17T19:10:21.645Z,26.62
2022-08-17T19:12:42.261Z,26.53
2022-08-17T19:14:49.212Z,26.53
2022-08-17T19:20:03.799Z,26.41
2022-08-17T19:22:30.924Z,26.44
2022-08-17T19:24:35.254Z,26.38
2022-08-17T19:27:02.024Z,26.37
2022-08-17T19:29:50.837Z,26.21
2022-08-17T19:31:59.098Z,26.11
2022-08-17T19:34:02.855Z,26.10
2022-08-17T19:36:23.505Z,26.12
2022-08-17T19:38:56.414Z,26.08
2022-08-17T19:41:21.641Z,25.95
2022-08-17T19:44:05.702Z,25.99
2022-08-17T19:46:49.849Z,26.17
2022-08-17T19:49:15.095Z,26.29
2022-08-17T19:51:49.374Z,26.36
2022-08-17T19:54:34.097Z,26.34
2022-08-17T19:56:56.986Z,26.50
2022-08-17T19:59:16.236Z,26.52
2022-08-17T20:01:52.608Z,26.47
2022-08-17T20:04:45.069Z,26.53
2022-08-17T20:06:50.437Z,26.28
2022-08-17T20:09:24.382Z,26.22
2022-08-17T20:12:00.696Z,26.22
2022-08-17T20:14:17.079Z,26.24
2022-08-17T20:16:20.565Z,26.15
2022-08-17T20:18:44.018Z,26.22
2022-08-17T20:21:01.764Z,26.10
2022-08-17T20:23:33.436Z,25.89
2022-08-17T20:25:59.295Z,25.81
2022-08-17T20:28:35.347Z,25.82
2022-08-17T20:30:42.805Z,25.71
2022-08-17T20:33:00.376Z,25.80
2022-08-17T20:35:22.632Z,25.66
2022-08-17T20:37:31.629Z,25.63
2022-08-17T20:39:37.662Z,25.61
2022-08-17T20:42:24.245Z,25.59
2022-08-17T20:44:47.427Z,25.62
2022-08-17T20:47:15.577Z,25.57
2022-08-17T20:49:27.951Z,25.60
2022-08-17T20:52:01.142Z,25.54
2022-08-17T20:54:27.614Z,25.45
2022-08-17T20:56:46.758Z,25.58
2022-08-17T21:00:00.289Z,25.41
2022-08-17T21:02:18.590Z,25.43
2022-08-17T21:04:50.654Z,25.35
2022-08-17T21:07:41.032Z,25.20
2022-08-17T21:09:46.548Z,24.90
2022-08-17T21:12:04.435Z,24.82
2022-08-17T21:14:26.733Z,24.71
2022-08-17T21:17:02.359Z,24.61
2022-08-17T21:19:54.202Z,24.47
2022-08-17T21:22:28.042Z,24.42
2022-08-17T21:25:01.654Z,24.35
2022-08-17T21:27:31.827Z,24.26
2022-08-17T21:29:40.309Z,24.18
2022-08-17T21:31:57.714Z,24.18
2022-08-17T21:34:16.627Z,24.16
2022-08-17T21:36:25.731Z,24.16
2022-08-17T21:38:40.599Z,24.24
2022-08-17T21:40:51.558Z,24.25
2022-08-17T21:43:19.537Z,24.30
2022-08-17T21:45:33.734Z,24.31
2022-08-17T21:47:47.369Z,24.30
2022-08-17T21:49:52.009Z,24.34
2022-08-17T21:51:56.536Z,24.23
2022-08-17T21:54:03.332Z,24.33
2022-08-17T21:56:07.102Z,24.27
2022-08-17T21:58:34.549Z,24.28
2022-08-17T22:00:36.875Z,24.24
2022-08-17T22:02:41.859Z,24.28
2022-08-17T22:04:57.180Z,24.23
2022-08-17T22:07:03.896Z,24.11
2022-08-17T22:09:37.280Z,24.04
2022-08-17T22:12:05.717Z,24.09
2022-08-17T22:14:18.208Z,24.11
2022-08-17T22:16:28.301Z,24.16
2022-08-17T22:18:32.047Z,24.08
2022-08-17T22:20:34.879Z,24.05
2022-08-17T22:22:46.284Z,23.99
2022-08-17T22:24:57.417Z,24.00
2022-08-17T22:27:11.100Z,24.02
2022-08-17T22:29:57.133Z,23.97
2022-08-17T22:32:00.045Z,23.87
2022-08-17T22:34:02.048Z,23.80
2022-08-17T22:36:48.594Z,23.68
2022-08-17T22:38:58.961Z,23.61
2022-08-17T22:41:28.846Z,23.61
2022-08-17T22:43:31.156Z,23.49
2022-08-17T22:45:46.412Z,23.34
2022-08-17T22:47:49.741Z,23.32
2022-08-17T22:49:59.346Z,23.25
2022-08-17T22:52:24.263Z,23.47
2022-08-17T22:54:32.477Z,23.42
2022-08-17T22:56:34.963Z,23.51
2022-08-17T22:58:58.828Z,23.48
2022-08-17T23:01:32.275Z,23.32
2022-08-17T23:03:55.134Z,23.21
2022-08-17T23:06:11.724Z,23.25
2022-08-17T23:08:15.727Z,23.16
2022-08-17T23:10:17.996Z,23.15
2022-08-17T23:12:26.646Z,23.10
2022-08-17T23:14:29.074Z,23.06
2022-08-17T23:16:31.101Z,23.11
2022-08-17T23:18:33.527Z,23.12
2022-08-17T23:20:37.865Z,23.17
2022-08-17T23:22:51.417Z,23.23
2022-08-17T23:24:55.253Z,23.25
2022-08-17T23:26:58.061Z,23.26
2022-08-17T23:29:00.134Z,23.23
2022-08-17T23:31:02.405Z,23.19
2022-08-17T23:33:09.315Z,23.21
2022-08-17T23:35:11.531Z,23.23
2022-08-17T23:37:14.330Z,23.16
2022-08-17T23:39:16.966Z,23.03
2022-08-17T23:41:36.136Z,22.62
2022-08-17T23:43:53.140Z,22.40
2022-08-17T23:45:59.291Z,22.34
2022-08-17T23:48:01.671Z,22.25
2022-08-17T23:50:04.262Z,22.18
2022-08-17T23:52:09.951Z,22.11
2022-08-17T23:54:35.710Z,22.18
2022-08-17T23:56:39.052Z,22.05
2022-08-17T23:58:43.248Z,21.94
